createdAt,value
2022-12-23T00:01:04.826Z,95.53
2022-12-23T00:03:32.973Z,95.25
2022-12-23T00:06:01.032Z,86.20
2022-12-23T00:08:28.156Z,100.93
2022-12-23T00:10:57.511Z,92.55
2022-12-23T00:13:42.812Z,94.97
2022-12-23T00:16:14.187Z,90.22
2022-12-23T00:18:43.625Z,91.97
2022-12-23T00:21:14.552Z,93.03
2022-12-23T00:23:46.161Z,93.25
2022-12-23T00:26:21.626Z,91.63
2022-12-23T00:28:49.246Z,89.40
2022-12-23T00:31:21.123Z,90.75
2022-12-23T00:33:51.442Z,91.55
2022-12-23T00:36:30.214Z,89.45
2022-12-23T00:39:18.009Z,95.63
2022-12-23T00:42:04.630Z,92.70
2022-12-23T00:44:31.686Z,93.25
2022-12-23T00:46:58.655Z,95.13
2022-12-23T00:49:43.776Z,96.65
2022-12-23T00:52:15.568Z,98.80
2022-12-23T00:54:42.897Z,92.72
2022-12-23T00:57:10.240Z,96.30
2022-12-23T00:59:37.605Z,95.45
2022-12-23T01:02:23.509Z,92.13
2022-12-23T01:05:08.933Z,88.78
2022-12-23T01:07:35.907Z,93.68
2022-12-23T01:10:04.147Z,89.40
2022-12-23T01:12:31.487Z,91.47
2022-12-23T01:14:58.794Z,91.75
2022-12-23T01:17:25.793Z,88.85
2022-12-23T01:19:52.699Z,88.28
2022-12-23T01:22:19.595Z,92.30
2022-12-23T01:24:46.529Z,85.32
2022-12-23T01:27:13.765Z,86.05
2022-12-23T01:29:40.830Z,89.68
2022-12-23T01:32:07.791Z,98.60
2022-12-23T01:34:37.462Z,88.07
2022-12-23T01:37:05.628Z,88.03
2022-12-23T01:39:32.960Z,85.30
2022-12-23T01:42:18.410Z,90.22
2022-12-23T01:44:55.903Z,91.28
2022-12-23T01:47:53.394Z,86.65
2022-12-23T01:50:29.920Z,89.63
2022-12-23T01:53:08.310Z,92.05
2022-12-23T01:56:24.064Z,87.35
2022-12-23T02:01:40.580Z,89.13
2022-12-23T02:04:12.848Z,87.28
2022-12-23T02:07:00.983Z,89.65
2022-12-23T02:09:38.147Z,90.32
2022-12-23T02:12:26.188Z,89.65
2022-12-23T02:15:31.704Z,90.20
2022-12-23T02:18:15.882Z,89.15
2022-12-23T02:21:01.253Z,98.18
2022-12-23T02:24:05.584Z,91.50
2022-12-23T02:26:50.062Z,98.25
2022-12-23T02:29:56.186Z,93.93
2022-12-23T02:33:02.095Z,91.97
2022-12-23T02:36:04.112Z,91.45
2022-12-23T02:38:58.896Z,81.32
2022-12-23T02:41:45.415Z,84.20
2022-12-23T02:44:33.863Z,90.65
2022-12-23T02:47:09.704Z,89.63
2022-12-23T02:49:42.207Z,91.72
2022-12-23T02:52:14.647Z,85.63
2022-12-23T02:54:51.189Z,97.55
2022-12-23T02:57:34.756Z,97.93
2022-12-23T03:00:03.869Z,92.18
2022-12-23T03:02:34.637Z,94.53
2022-12-23T03:05:01.983Z,97.50
2022-12-23T03:07:39.128Z,93.50
2022-12-23T03:10:12.014Z,96.68
2022-12-23T03:13:01.014Z,97.72
2022-12-23T03:15:58.276Z,93.70
2022-12-23T03:18:43.785Z,95.93
2022-12-23T03:21:23.156Z,97.13
2022-12-23T03:23:59.004Z,90.50
2022-12-23T03:26:39.433Z,97.30
2022-12-23T03:29:19.070Z,101.78
2022-12-23T03:31:47.760Z,93.90
2022-12-23T03:34:20.161Z,100.32
2022-12-23T03:36:56.260Z,98.97
2022-12-23T03:39:31.281Z,94.80
2022-12-23T03:42:07.143Z,104.95
2022-12-23T03:44:39.400Z,103.97
2022-12-23T03:47:17.578Z,99.70
2022-12-23T03:49:53.112Z,101.72
2022-12-23T03:52:28.506Z,100.13
2022-12-23T03:54:59.613Z,101.32
2022-12-23T03:57:36.869Z,107.93
2022-12-23T04:00:06.659Z,105.10
2022-12-23T04:03:01.459Z,102.30
2022-12-23T04:05:36.217Z,111.57
2022-12-23T04:08:09.084Z,101.95
2022-12-23T04:10:36.220Z,101.70
2022-12-23T04:13:03.448Z,100.60
2022-12-23T04:15:30.855Z,105.03
2022-12-23T04:17:58.463Z,104.68
2022-12-23T04:20:25.896Z,97.72
2022-12-23T04:22:52.853Z,100.72
2022-12-23T04:25:20.451Z,107.20
2022-12-23T04:27:47.588Z,106.55
2022-12-23T04:30:15.009Z,107.13
2022-12-23T04:32:43.292Z,111.07
2022-12-23T04:35:11.730Z,108.38
2022-12-23T04:37:39.183Z,108.88
2022-12-23T04:40:07.189Z,109.28
2022-12-23T04:42:34.464Z,106.93
2022-12-23T04:45:01.802Z,102.95
2022-12-23T04:47:28.786Z,110.18
2022-12-23T04:49:55.806Z,113.72
2022-12-23T04:52:22.930Z,113.10
2022-12-23T04:54:49.834Z,114.60
2022-12-23T04:57:16.739Z,103.47
2022-12-23T04:59:43.714Z,109.93
2022-12-23T05:02:11.176Z,106.82
2022-12-23T05:04:38.428Z,107.68
2022-12-23T05:07:05.748Z,110.82
2022-12-23T05:09:32.687Z,114.25
2022-12-23T05:11:59.712Z,113.97
2022-12-23T05:14:26.599Z,107.80
2022-12-23T05:16:53.491Z,111.55
2022-12-23T05:19:20.375Z,108.43
2022-12-23T05:21:47.306Z,114.55
2022-12-23T05:24:14.257Z,116.40
2022-12-23T05:26:43.823Z,112.95
2022-12-23T05:29:15.809Z,119.63
2022-12-23T05:31:42.852Z,110.43
2022-12-23T05:34:09.882Z,110.07
2022-12-23T05:36:36.867Z,107.72
2022-12-23T05:39:03.840Z,107.55
2022-12-23T05:41:30.778Z,115.28
2022-12-23T05:43:57.845Z,106.90
2022-12-23T05:46:27.144Z,121.57
2022-12-23T05:48:54.527Z,112.65
2022-12-23T05:51:21.714Z,116.30
2022-12-23T05:53:48.671Z,116.35
2022-12-23T05:56:15.561Z,108.50
2022-12-23T05:58:42.797Z,105.40
2022-12-23T06:01:10.024Z,114.57
2022-12-23T06:03:37.146Z,115.30
2022-12-23T06:06:04.755Z,114.07
2022-12-23T06:08:31.662Z,107.25
2022-12-23T06:10:59.955Z,109.68
2022-12-23T06:13:27.033Z,110.13
2022-12-23T06:15:54.142Z,110.40
2022-12-23T06:18:21.207Z,111.68
2022-12-23T06:20:48.522Z,105.28
2022-12-23T06:23:15.495Z,113.82
2022-12-23T06:25:42.464Z,100.13
2022-12-23T06:28:09.431Z,115.88
2022-12-23T06:30:36.365Z,105.43
2022-12-23T06:33:03.451Z,112.47
2022-12-23T06:35:30.459Z,111.68
2022-12-23T06:37:57.433Z,111.97
2022-12-23T06:40:24.374Z,111.00
2022-12-23T06:42:51.401Z,118.63
2022-12-23T06:45:18.303Z,112.43
2022-12-23T06:47:45.343Z,120.97
2022-12-23T06:50:12.304Z,115.05
2022-12-23T06:52:39.258Z,125.28
2022-12-23T06:55:06.760Z,125.93
2022-12-23T06:57:33.868Z,108.90
2022-12-23T07:00:00.945Z,106.63
2022-12-23T07:02:28.259Z,115.63
2022-12-23T07:04:55.221Z,122.32
2022-12-23T07:07:22.172Z,128.43
2022-12-23T07:09:49.198Z,105.75
2022-12-23T07:12:16.471Z,101.97
2022-12-23T07:14:43.537Z,140.18
2022-12-23T07:17:10.552Z,138.18
2022-12-23T07:19:37.629Z,122.63
2022-12-23T07:22:04.781Z,133.05
2022-12-23T07:24:31.734Z,129.93
2022-12-23T07:26:59.017Z,127.25
2022-12-23T07:29:26.011Z,126.38
2022-12-23T07:31:53.504Z,131.05
2022-12-23T07:34:20.623Z,132.05
2022-12-23T07:36:47.829Z,131.18
2022-12-23T07:39:14.893Z,129.70
2022-12-23T07:41:42.043Z,129.20
2022-12-23T07:44:09.096Z,129.77
2022-12-23T07:46:36.373Z,131.93
2022-12-23T07:49:03.586Z,130.35
2022-12-23T07:51:30.853Z,141.10
2022-12-23T07:53:58.448Z,139.25
2022-12-23T07:56:26.031Z,131.90
2022-12-23T07:58:54.271Z,139.88
2022-12-23T08:01:22.067Z,138.75
2022-12-23T08:03:49.529Z,139.20
2022-12-23T08:06:16.891Z,138.80
2022-12-23T08:08:46.216Z,139.43
2022-12-23T08:11:15.169Z,136.07
2022-12-23T08:13:44.780Z,148.68
2022-12-23T08:16:13.036Z,152.88
2022-12-23T08:18:41.631Z,158.02
2022-12-23T08:21:14.937Z,144.35
2022-12-23T08:23:43.640Z,147.20
2022-12-23T08:26:21.252Z,144.00
2022-12-23T08:28:53.538Z,147.90
2022-12-23T08:31:27.176Z,140.23
2022-12-23T08:33:57.201Z,141.32
2022-12-23T08:36:31.368Z,135.20
2022-12-23T08:41:32.772Z,134.18
2022-12-23T08:44:00.178Z,135.20
2022-12-23T08:46:28.166Z,131.63
2022-12-23T08:48:55.655Z,124.18
2022-12-23T08:51:24.816Z,133.65
2022-12-23T08:54:00.441Z,132.30
2022-12-23T08:56:33.345Z,127.18
2022-12-23T08:59:01.285Z,128.85
2022-12-23T09:01:32.739Z,120.40
2022-12-23T09:04:04.823Z,125.20
2022-12-23T09:06:40.734Z,123.60
2022-12-23T09:09:11.094Z,124.72
2022-12-23T09:11:38.960Z,117.70
2022-12-23T09:14:07.249Z,124.40
2022-12-23T09:16:34.583Z,122.20
2022-12-23T09:19:02.078Z,125.55
2022-12-23T09:21:29.430Z,124.50
2022-12-23T09:23:57.364Z,128.32
2022-12-23T09:26:28.193Z,119.30
2022-12-23T09:28:56.333Z,124.57
2022-12-23T09:31:26.694Z,124.82
2022-12-23T09:33:56.782Z,127.38
2022-12-23T09:36:24.140Z,128.60
2022-12-23T09:38:57.248Z,121.85
2022-12-23T09:42:03.561Z,123.78
2022-12-23T09:44:48.480Z,115.93
2022-12-23T09:47:23.929Z,115.55
2022-12-23T09:50:05.081Z,113.72
2022-12-23T09:53:03.211Z,112.35
2022-12-23T09:56:02.797Z,111.28
2022-12-23T09:59:20.345Z,105.25
2022-12-23T10:02:06.303Z,100.30
2022-12-23T10:04:36.965Z,102.78
2022-12-23T10:07:03.955Z,100.93
2022-12-23T10:09:37.869Z,102.13
2022-12-23T10:12:27.198Z,103.53
2022-12-23T10:14:58.801Z,107.35
2022-12-23T10:17:36.220Z,107.10
2022-12-23T10:20:06.506Z,111.05
2022-12-23T10:22:44.737Z,99.97
2022-12-23T10:25:35.603Z,105.55
2022-12-23T10:28:02.933Z,114.80
2022-12-23T10:30:57.407Z,112.78
2022-12-23T10:33:49.090Z,119.50
2022-12-23T10:36:58.536Z,123.68
2022-12-23T10:39:51.686Z,122.63
2022-12-23T10:42:34.124Z,122.85
2022-12-23T10:45:20.767Z,125.25
2022-12-23T10:48:06.101Z,116.72
2022-12-23T10:50:38.851Z,121.18
2022-12-23T10:53:11.649Z,126.30
2022-12-23T10:55:39.912Z,121.10
2022-12-23T10:58:18.711Z,128.82
2022-12-23T11:00:55.598Z,118.60
2022-12-23T11:03:38.725Z,127.85
2022-12-23T11:06:08.939Z,121.95
2022-12-23T11:08:38.648Z,117.47
2022-12-23T11:11:07.427Z,125.55
2022-12-23T11:13:41.447Z,117.80
2022-12-23T11:16:24.514Z,124.50
2022-12-23T11:18:55.757Z,118.50
2022-12-23T11:21:22.813Z,126.63
2022-12-23T11:24:10.094Z,119.43
2022-12-23T11:26:37.276Z,123.97
2022-12-23T11:29:19.656Z,124.45
2022-12-23T11:31:46.850Z,121.82
2022-12-23T11:34:17.287Z,133.15
2022-12-23T11:36:55.108Z,119.88
2022-12-23T11:39:34.039Z,117.43
2022-12-23T11:42:13.057Z,112.28
2022-12-23T11:44:52.411Z,114.63
2022-12-23T11:47:24.136Z,120.30
2022-12-23T11:49:57.528Z,116.20
2022-12-23T11:52:29.021Z,110.50
2022-12-23T11:55:01.964Z,106.78
2022-12-23T11:57:49.383Z,113.30
2022-12-23T12:00:34.717Z,108.97
2022-12-23T12:03:03.742Z,111.28
2022-12-23T12:05:52.103Z,111.45
2022-12-23T12:08:26.248Z,103.72
2022-12-23T12:11:02.411Z,110.10
2022-12-23T12:13:38.509Z,105.88
2022-12-23T12:16:30.676Z,98.75
2022-12-23T12:19:12.305Z,102.65
2022-12-23T12:21:39.864Z,99.88
2022-12-23T12:24:29.023Z,99.43
2022-12-23T12:27:03.651Z,99.25
2022-12-23T12:29:44.125Z,104.63
2022-12-23T12:32:33.697Z,106.32
2022-12-23T12:35:07.156Z,97.35
2022-12-23T12:37:53.135Z,102.10
2022-12-23T12:40:42.639Z,94.38
2022-12-23T12:43:35.265Z,98.95
2022-12-23T12:46:31.663Z,102.15
2022-12-23T12:49:47.760Z,93.18
2022-12-23T12:52:25.988Z,99.70
2022-12-23T12:55:21.598Z,95.35
2022-12-23T12:57:48.801Z,97.18
2022-12-23T13:00:24.731Z,105.15
2022-12-23T13:03:02.048Z,100.03
2022-12-23T13:09:02.854Z,98.63
2022-12-23T13:11:48.921Z,99.72
2022-12-23T13:18:15.239Z,101.30
2022-12-23T13:23:49.543Z,104.68
2022-12-23T13:26:31.381Z,106.20
2022-12-23T13:29:58.028Z,102.47
2022-12-23T13:32:49.713Z,105.32
2022-12-23T13:35:22.720Z,104.63
2022-12-23T13:38:23.253Z,106.65
2022-12-23T13:41:22.940Z,110.22
2022-12-23T13:43:57.897Z,104.47
2022-12-23T13:46:58.725Z,108.03
2022-12-23T13:49:45.715Z,101.55
2022-12-23T13:52:28.737Z,105.60
2022-12-23T13:55:40.886Z,107.28
2022-12-23T13:58:18.345Z,102.15
2022-12-23T14:00:46.434Z,107.22
2022-12-23T14:03:20.664Z,109.53
2022-12-23T14:05:52.870Z,100.82
2022-12-23T14:08:25.026Z,97.85
2022-12-23T14:11:33.118Z,100.13
2022-12-23T14:14:06.286Z,89.10
2022-12-23T14:17:10.069Z,97.30
2022-12-23T14:20:31.513Z,90.15
2022-12-23T14:26:38.086Z,92.65
2022-12-23T14:29:13.844Z,91.82
2022-12-23T14:31:45.278Z,92.68
2022-12-23T14:34:18.272Z,91.07
2022-12-23T14:37:24.288Z,95.18
2022-12-23T14:39:52.888Z,92.95
2022-12-23T14:42:43.414Z,92.95
2022-12-23T14:45:37.144Z,91.32
2022-12-23T14:48:37.086Z,93.57
2022-12-23T14:51:10.334Z,93.93
2022-12-23T14:56:39.518Z,90.80
2022-12-23T14:59:56.835Z,96.28
2022-12-23T15:02:37.418Z,91.03
2022-12-23T15:05:05.472Z,96.18
2022-12-23T15:07:36.473Z,93.32
2022-12-23T15:10:23.950Z,91.97
2022-12-23T15:12:58.293Z,92.07
2022-12-23T15:15:29.072Z,90.93
2022-12-23T15:18:03.497Z,90.68
2022-12-23T15:20:31.208Z,92.33
2022-12-23T15:23:11.885Z,93.70
2022-12-23T15:25:44.887Z,97.55
2022-12-23T15:28:30.570Z,97.63
2022-12-23T15:30:57.930Z,106.40
2022-12-23T15:36:35.427Z,103.45
2022-12-23T15:39:10.356Z,106.97
2022-12-23T15:41:45.890Z,102.78
2022-12-23T15:44:19.978Z,104.85
2022-12-23T15:49:21.995Z,106.50
2022-12-23T15:52:16.524Z,107.93
2022-12-23T15:55:24.512Z,111.20
2022-12-23T15:57:52.733Z,112.07
2022-12-23T16:00:25.522Z,108.38
2022-12-23T16:03:01.230Z,115.10
2022-12-23T16:05:36.134Z,113.95
2022-12-23T16:08:23.020Z,114.10
2022-12-23T16:11:17.313Z,109.30
2022-12-23T16:14:01.464Z,113.57
2022-12-23T16:16:42.991Z,110.78
2022-12-23T16:19:53.482Z,112.10
2022-12-23T16:22:20.420Z,114.45
2022-12-23T16:24:57.901Z,112.70
2022-12-23T16:27:46.640Z,107.60
2022-12-23T16:30:17.715Z,108.05
2022-12-23T16:32:51.067Z,113.93
2022-12-23T16:35:32.115Z,117.43
2022-12-23T16:38:19.936Z,122.32
2022-12-23T16:40:55.756Z,130.20
2022-12-23T16:43:25.369Z,117.43
2022-12-23T16:45:56.203Z,126.38
2022-12-23T16:48:29.521Z,122.07
2022-12-23T16:50:58.063Z,125.78
2022-12-23T16:53:24.995Z,127.45
2022-12-23T16:55:58.357Z,126.28
2022-12-23T16:58:27.646Z,125.90
2022-12-23T17:00:55.935Z,128.05
2022-12-23T17:03:23.602Z,130.07
2022-12-23T17:05:50.682Z,132.77
2022-12-23T17:08:17.782Z,132.18
2022-12-23T17:10:45.388Z,133.98
2022-12-23T17:13:16.820Z,134.93
2022-12-23T17:15:44.677Z,125.70
2022-12-23T17:18:21.036Z,131.23
2022-12-23T17:20:49.494Z,131.50
2022-12-23T17:23:27.489Z,120.15
2022-12-23T17:25:54.844Z,126.55
2022-12-23T17:28:22.573Z,126.60
2022-12-23T17:30:54.785Z,126.65
2022-12-23T17:33:28.382Z,123.38
2022-12-23T17:35:55.961Z,130.05
2022-12-23T17:38:23.649Z,134.90
2022-12-23T17:40:51.315Z,125.20
2022-12-23T17:43:19.084Z,126.68
2022-12-23T17:45:47.129Z,129.18
2022-12-23T17:48:20.639Z,127.13
2022-12-23T17:50:49.368Z,128.70
2022-12-23T17:53:18.383Z,129.57
2022-12-23T17:55:45.634Z,131.45
2022-12-23T17:58:14.550Z,125.85
2022-12-23T18:00:42.227Z,123.25
2022-12-23T18:03:23.312Z,125.65
2022-12-23T18:05:55.649Z,127.78
2022-12-23T18:08:28.241Z,125.57
2022-12-23T18:10:55.729Z,130.85
2022-12-23T18:13:22.815Z,122.95
2022-12-23T18:15:50.275Z,117.45
2022-12-23T18:18:28.565Z,123.70
2022-12-23T18:21:00.492Z,124.75
2022-12-23T18:23:31.132Z,129.40
2022-12-23T18:25:59.269Z,128.43
2022-12-23T18:28:27.420Z,128.40
2022-12-23T18:30:58.083Z,124.38
2022-12-23T18:33:28.775Z,119.35
2022-12-23T18:35:56.276Z,125.00
2022-12-23T18:38:23.277Z,118.70
2022-12-23T18:40:54.678Z,129.68
2022-12-23T18:43:24.951Z,126.75
2022-12-23T18:45:53.773Z,127.85
2022-12-23T18:48:21.505Z,126.10
2022-12-23T18:50:48.922Z,118.80
2022-12-23T18:53:24.565Z,121.03
2022-12-23T18:55:53.858Z,117.95
2022-12-23T18:58:21.705Z,125.35
2022-12-23T19:00:50.965Z,115.47
2022-12-23T19:03:23.380Z,121.10
2022-12-23T19:05:53.327Z,123.85
2022-12-23T19:08:26.785Z,124.90
2022-12-23T19:10:56.007Z,121.85
2022-12-23T19:13:23.485Z,121.32
2022-12-23T19:15:51.016Z,118.10
2022-12-23T19:18:21.094Z,117.13
2022-12-23T19:20:51.887Z,113.75
2022-12-23T19:23:19.037Z,121.00
2022-12-23T19:25:54.361Z,121.43
2022-12-23T19:28:22.860Z,122.63
2022-12-23T19:30:50.575Z,119.28
2022-12-23T19:33:17.736Z,124.03
2022-12-23T19:35:44.869Z,123.80
2022-12-23T19:38:12.459Z,120.82
2022-12-23T19:40:40.640Z,121.43
2022-12-23T19:43:08.122Z,125.18
2022-12-23T19:45:35.105Z,127.70
2022-12-23T19:48:02.119Z,129.10
2022-12-23T19:50:29.196Z,126.90
2022-12-23T19:52:56.677Z,127.72
2022-12-23T19:55:24.508Z,124.60
2022-12-23T19:57:52.272Z,121.80
2022-12-23T20:00:19.414Z,120.97
2022-12-23T20:02:46.785Z,122.43
2022-12-23T20:05:14.166Z,133.27
2022-12-23T20:07:41.248Z,129.25
2022-12-23T20:10:08.964Z,140.60
2022-12-23T20:12:35.918Z,133.20
2022-12-23T20:15:03.107Z,138.75
2022-12-23T20:17:30.125Z,127.65
2022-12-23T20:19:57.393Z,139.82
2022-12-23T20:22:24.360Z,128.20
2022-12-23T20:24:51.261Z,142.07
2022-12-23T20:27:22.670Z,138.18
2022-12-23T20:29:53.129Z,133.30
2022-12-23T20:32:20.039Z,129.73
2022-12-23T20:34:49.024Z,134.40
2022-12-23T20:37:16.270Z,131.80
2022-12-23T20:39:43.267Z,133.43
2022-12-23T20:42:10.358Z,127.00
2022-12-23T20:44:38.100Z,133.43
2022-12-23T20:47:06.334Z,127.10
2022-12-23T20:49:33.891Z,132.63
2022-12-23T20:52:01.464Z,135.07
2022-12-23T20:54:33.077Z,134.48
2022-12-23T20:57:04.045Z,133.38
2022-12-23T20:59:31.365Z,135.57
2022-12-23T21:01:59.326Z,142.57
2022-12-23T21:04:26.721Z,132.45
2022-12-23T21:06:54.666Z,140.70
2022-12-23T21:09:21.847Z,135.40
2022-12-23T21:11:49.909Z,137.57
2022-12-23T21:14:17.233Z,133.07
2022-12-23T21:16:44.487Z,140.60
2022-12-23T21:19:24.292Z,132.48
2022-12-23T21:21:52.557Z,140.05
2022-12-23T21:24:21.217Z,141.05
2022-12-23T21:26:56.560Z,141.73
2022-12-23T21:29:24.607Z,142.52
2022-12-23T21:31:51.679Z,145.55
2022-12-23T21:34:18.742Z,144.18
2022-12-23T21:36:45.757Z,141.45
2022-12-23T21:39:18.331Z,151.48
2022-12-23T21:41:46.028Z,141.57
2022-12-23T21:44:16.445Z,149.18
2022-12-23T21:46:43.627Z,148.32
2022-12-23T21:49:11.464Z,152.55
2022-12-23T21:51:41.321Z,144.88
2022-12-23T21:54:10.929Z,147.40
2022-12-23T21:56:39.268Z,151.25
2022-12-23T21:59:14.138Z,146.77
2022-12-23T22:01:42.742Z,132.52
2022-12-23T22:04:10.012Z,150.95
2022-12-23T22:06:41.401Z,154.13
2022-12-23T22:09:10.002Z,146.20
2022-12-23T22:11:38.374Z,150.27
2022-12-23T22:14:08.652Z,154.70
2022-12-23T22:16:36.374Z,154.48
2022-12-23T22:19:06.354Z,150.70
2022-12-23T22:21:36.400Z,152.30
2022-12-23T22:24:03.690Z,147.35
2022-12-23T22:26:33.023Z,154.43
2022-12-23T22:29:03.301Z,152.25
2022-12-23T22:31:43.598Z,143.48
2022-12-23T22:34:21.305Z,159.37
2022-12-23T22:36:49.582Z,150.07
2022-12-23T22:39:21.472Z,153.18
2022-12-23T22:41:53.151Z,154.85
2022-12-23T22:44:20.967Z,158.57
2022-12-23T22:46:48.390Z,155.77
2022-12-23T22:49:16.459Z,153.75
2022-12-23T22:51:44.001Z,158.40
2022-12-23T22:54:11.251Z,158.40
2022-12-23T22:56:38.242Z,165.50
2022-12-23T22:59:05.644Z,164.45
2022-12-23T23:01:35.988Z,149.10
2022-12-23T23:04:05.062Z,152.63
2022-12-23T23:06:37.636Z,163.45
2022-12-23T23:09:12.896Z,151.88
2022-12-23T23:11:40.928Z,161.50
2022-12-23T23:14:07.931Z,151.18
2022-12-23T23:16:34.970Z,157.20
2022-12-23T23:19:02.339Z,160.00
2022-12-23T23:21:29.580Z,153.27
2022-12-23T23:23:56.534Z,143.38
2022-12-23T23:26:27.225Z,160.38
2022-12-23T23:28:55.609Z,162.70
2022-12-23T23:34:11.758Z,159.88
2022-12-23T23:36:38.959Z,162.75
2022-12-23T23:39:06.049Z,154.38
2022-12-23T23:44:08.581Z,149.50
2022-12-23T23:46:35.918Z,154.55
2022-12-23T23:49:03.414Z,147.65
2022-12-23T23:51:30.596Z,160.00
2022-12-23T23:53:57.667Z,172.18
2022-12-23T23:56:26.244Z,152.30
2022-12-23T23:58:55.202Z,171.88
